createdAt,value
2019-02-10T00:00:32.636Z,73.47
2019-02-10T00:01:32.598Z,73.68
2019-02-10T00:02:32.587Z,73.71
2019-02-10T00:03:32.578Z,73.68
2019-02-10T00:04:32.566Z,74.08
2019-02-10T00:05:32.577Z,73.98
2019-02-10T00:06:32.540Z,73.77
2019-02-10T00:07:32.531Z,74.29
2019-02-10T00:08:32.518Z,74.19
2019-02-10T00:09:32.506Z,73.98
2019-02-10T00:10:32.523Z,74.08
2019-02-10T00:11:32.486Z,74.08
2019-02-10T00:12:32.478Z,74.33
2019-02-10T00:13:32.468Z,74.22
2019-02-10T00:14:32.457Z,74.22
2019-02-10T00:15:32.467Z,74.60
2019-02-10T00:16:32.431Z,74.40
2019-02-10T00:17:32.421Z,74.71
2019-02-10T00:18:32.420Z,74.60
2019-02-10T00:19:32.398Z,74.81
2019-02-10T00:20:32.411Z,74.40
2019-02-10T00:21:32.377Z,74.71
2019-02-10T00:22:32.364Z,74.71
2019-02-10T00:23:32.375Z,74.71
2019-02-10T00:24:32.346Z,74.71
2019-02-10T00:25:32.412Z,74.71
2019-02-10T00:26:32.323Z,74.60
2019-02-10T00:27:32.312Z,74.50
2019-02-10T00:28:32.302Z,74.53
2019-02-10T00:29:32.290Z,74.60
2019-02-10T00:30:32.302Z,74.71
2019-02-10T00:31:32.267Z,74.74
2019-02-10T00:32:32.254Z,74.50
2019-02-10T00:33:32.249Z,74.43
2019-02-10T00:34:32.234Z,74.40
2019-02-10T00:35:32.248Z,74.29
2019-02-10T00:36:33.540Z,74.19
2019-02-10T00:37:32.204Z,74.53
2019-02-10T00:38:32.193Z,74.40
2019-02-10T00:39:32.178Z,74.91
2019-02-10T00:40:32.199Z,74.91
2019-02-10T00:41:32.156Z,74.91
2019-02-10T00:42:32.145Z,75.05
2019-02-10T00:43:32.157Z,74.63
2019-02-10T00:44:32.124Z,74.95
2019-02-10T00:45:32.139Z,75.01
2019-02-10T00:46:32.102Z,74.74
2019-02-10T00:47:32.094Z,74.84
2019-02-10T00:48:32.079Z,74.71
2019-02-10T00:49:32.071Z,75.32
2019-02-10T00:50:32.083Z,74.84
2019-02-10T00:51:32.046Z,75.98
2019-02-10T00:52:32.034Z,76.08
2019-02-10T00:53:32.027Z,76.08
2019-02-10T00:54:32.016Z,76.18
2019-02-10T00:55:32.029Z,75.63
2019-02-10T00:56:31.991Z,75.98
2019-02-10T00:57:31.979Z,76.08
2019-02-10T00:58:31.973Z,75.77
2019-02-10T00:59:31.960Z,76.08
2019-02-10T01:00:31.973Z,76.50
2019-02-10T01:01:31.939Z,75.77
2019-02-10T01:02:31.927Z,75.77
2019-02-10T01:03:31.918Z,75.98
2019-02-10T01:04:31.909Z,75.57
2019-02-10T01:05:31.928Z,76.18
2019-02-10T01:06:31.899Z,76.18
2019-02-10T01:07:31.874Z,76.39
2019-02-10T01:08:31.862Z,76.08
2019-02-10T01:09:31.851Z,76.60
2019-02-10T01:10:31.865Z,76.94
2019-02-10T01:11:31.832Z,76.53
2019-02-10T01:12:31.819Z,76.50
2019-02-10T01:13:31.847Z,76.50
2019-02-10T01:14:31.794Z,77.22
2019-02-10T01:15:31.809Z,77.25
2019-02-10T01:16:31.778Z,76.90
2019-02-10T01:17:31.770Z,77.67
2019-02-10T01:18:31.752Z,77.56
2019-02-10T01:19:31.749Z,77.56
2019-02-10T01:20:31.756Z,77.91
2019-02-10T01:21:31.722Z,78.18
2019-02-10T01:22:31.709Z,77.91
2019-02-10T01:23:31.698Z,78.22
2019-02-10T01:24:31.686Z,78.42
2019-02-10T01:25:31.701Z,78.32
2019-02-10T01:26:31.702Z,78.36
2019-02-10T01:27:31.655Z,78.42
2019-02-10T01:28:31.644Z,78.74
2019-02-10T01:29:31.637Z,78.84
2019-02-10T01:30:31.646Z,79.05
2019-02-10T01:31:31.610Z,78.94
2019-02-10T01:32:31.601Z,79.08
2019-02-10T01:33:31.588Z,79.08
2019-02-10T01:34:31.584Z,79.19
2019-02-10T01:35:31.592Z,79.39
2019-02-10T01:36:31.556Z,79.49
2019-02-10T01:37:31.546Z,79.91
2019-02-10T01:38:31.537Z,79.60
2019-02-10T01:39:31.544Z,79.49
2019-02-10T01:40:31.540Z,79.80
2019-02-10T01:41:31.502Z,79.91
2019-02-10T01:42:31.492Z,79.91
2019-02-10T01:43:31.480Z,80.05
2019-02-10T01:44:38.512Z,80.15
2019-02-10T01:45:31.483Z,80.57
2019-02-10T01:46:31.449Z,80.53
2019-02-10T01:47:31.439Z,80.57
2019-02-10T01:48:31.427Z,80.77
2019-02-10T01:49:31.420Z,80.57
2019-02-10T01:50:31.432Z,80.67
2019-02-10T01:51:31.398Z,80.88
2019-02-10T01:52:31.387Z,81.29
2019-02-10T01:53:31.379Z,81.09
2019-02-10T01:54:31.370Z,80.77
2019-02-10T01:55:32.937Z,81.09
2019-02-10T01:56:31.347Z,80.77
2019-02-10T01:57:31.335Z,80.57
2019-02-10T01:58:31.325Z,81.19
2019-02-10T01:59:31.314Z,81.39
2019-02-10T02:00:31.329Z,81.29
2019-02-10T02:01:31.292Z,81.64
2019-02-10T02:02:31.285Z,81.60
2019-02-10T02:03:31.270Z,81.39
2019-02-10T02:04:31.263Z,81.54
2019-02-10T02:05:31.281Z,81.74
2019-02-10T02:06:31.238Z,81.33
2019-02-10T02:07:31.229Z,81.43
2019-02-10T02:08:31.221Z,81.95
2019-02-10T02:09:31.212Z,81.95
2019-02-10T02:10:31.222Z,81.84
2019-02-10T02:11:31.189Z,81.84
2019-02-10T02:12:31.176Z,81.43
2019-02-10T02:13:31.163Z,81.64
2019-02-10T02:14:31.156Z,82.15
2019-02-10T02:15:31.168Z,82.05
2019-02-10T02:16:31.131Z,81.84
2019-02-10T02:17:31.129Z,82.26
2019-02-10T02:18:31.111Z,81.74
2019-02-10T02:19:31.100Z,81.64
2019-02-10T02:20:31.118Z,81.43
2019-02-10T02:21:31.075Z,81.54
2019-02-10T02:22:31.072Z,81.43
2019-02-10T02:23:31.058Z,81.74
2019-02-10T02:24:31.049Z,81.33
2019-02-10T02:25:31.060Z,81.43
2019-02-10T02:26:31.024Z,81.74
2019-02-10T02:27:31.014Z,81.68
2019-02-10T02:28:31.003Z,81.33
2019-02-10T02:29:30.990Z,81.33
2019-02-10T02:30:31.007Z,81.74
2019-02-10T02:31:30.971Z,81.64
2019-02-10T02:32:30.959Z,81.78
2019-02-10T02:33:30.949Z,81.68
2019-02-10T02:34:30.935Z,81.84
2019-02-10T02:35:30.952Z,81.64
2019-02-10T02:36:30.927Z,81.64
2019-02-10T02:37:30.904Z,81.33
2019-02-10T02:38:30.891Z,81.84
2019-02-10T02:39:30.887Z,81.33
2019-02-10T02:40:30.896Z,81.74
2019-02-10T02:41:30.860Z,81.74
2019-02-10T02:42:30.853Z,81.64
2019-02-10T02:43:30.841Z,81.74
2019-02-10T02:44:30.828Z,81.54
2019-02-10T02:45:30.843Z,81.74
2019-02-10T02:46:30.805Z,81.43
2019-02-10T02:47:30.808Z,81.33
2019-02-10T02:48:30.823Z,81.43
2019-02-10T02:49:30.772Z,81.74
2019-02-10T02:50:30.794Z,81.54
2019-02-10T02:51:30.757Z,81.64
2019-02-10T02:52:30.741Z,81.74
2019-02-10T02:53:30.728Z,81.33
2019-02-10T02:54:30.718Z,81.33
2019-02-10T02:55:30.771Z,81.33
2019-02-10T02:56:30.696Z,81.43
2019-02-10T02:57:30.687Z,81.33
2019-02-10T02:58:30.675Z,81.54
2019-02-10T02:59:30.663Z,81.43
2019-02-10T03:00:30.654Z,81.33
2019-02-10T03:01:30.666Z,81.84
2019-02-10T03:02:30.633Z,81.95
2019-02-10T03:03:30.621Z,81.95
2019-02-10T03:04:30.619Z,81.95
2019-02-10T03:05:30.627Z,82.15
2019-02-10T03:06:30.589Z,81.99
2019-02-10T03:07:30.578Z,81.95
2019-02-10T03:08:30.565Z,81.68
2019-02-10T03:09:30.559Z,81.99
2019-02-10T03:10:30.593Z,82.19
2019-02-10T03:11:30.534Z,81.68
2019-02-10T03:12:30.522Z,81.47
2019-02-10T03:13:30.512Z,81.99
2019-02-10T03:14:30.506Z,82.50
2019-02-10T03:15:30.518Z,82.60
2019-02-10T03:16:30.479Z,82.50
2019-02-10T03:17:30.471Z,82.50
2019-02-10T03:18:30.457Z,82.60
2019-02-10T03:19:30.445Z,82.65
2019-02-10T03:20:30.463Z,82.92
2019-02-10T03:21:30.426Z,82.71
2019-02-10T03:22:30.417Z,82.92
2019-02-10T03:23:30.401Z,82.86
2019-02-10T03:24:30.391Z,82.95
2019-02-10T03:25:30.404Z,83.16
2019-02-10T03:26:30.372Z,83.06
2019-02-10T03:27:30.359Z,83.16
2019-02-10T03:28:30.350Z,82.95
2019-02-10T03:29:30.336Z,82.95
2019-02-10T03:30:30.351Z,82.86
2019-02-10T03:31:30.327Z,82.95
2019-02-10T03:32:30.304Z,82.86
2019-02-10T03:33:30.294Z,82.75
2019-02-10T03:34:30.282Z,82.75
2019-02-10T03:35:30.297Z,82.95
2019-02-10T03:36:30.258Z,82.75
2019-02-10T03:37:30.268Z,82.86
2019-02-10T03:38:30.237Z,82.75
2019-02-10T03:39:30.230Z,82.75
2019-02-10T03:40:30.239Z,82.75
2019-02-10T03:41:30.205Z,82.95
2019-02-10T03:42:30.193Z,83.26
2019-02-10T03:43:30.185Z,83.47
2019-02-10T03:44:30.170Z,83.16
2019-02-10T03:45:30.188Z,83.37
2019-02-10T03:46:30.150Z,83.31
2019-02-10T03:47:30.144Z,83.37
2019-02-10T03:48:30.131Z,83.31
2019-02-10T03:49:30.117Z,83.37
2019-02-10T03:50:30.132Z,83.37
2019-02-10T03:51:30.103Z,83.83
2019-02-10T03:52:30.084Z,83.68
2019-02-10T03:53:30.075Z,83.83
2019-02-10T03:54:30.063Z,83.62
2019-02-10T03:55:30.077Z,83.62
2019-02-10T03:56:30.042Z,83.62
2019-02-10T03:57:30.029Z,83.83
2019-02-10T03:58:30.019Z,83.83
2019-02-10T03:59:30.008Z,83.72
2019-02-10T04:00:30.027Z,83.72
2019-02-10T04:01:29.985Z,83.83
2019-02-10T04:02:29.983Z,83.83
2019-02-10T04:03:29.966Z,84.03
2019-02-10T04:04:29.959Z,83.72
2019-02-10T04:05:29.972Z,83.83
2019-02-10T04:06:29.933Z,84.03
2019-02-10T04:07:35.896Z,83.93
2019-02-10T04:08:30.912Z,83.83
2019-02-10T04:09:29.934Z,83.93
2019-02-10T04:10:29.915Z,83.93
2019-02-10T04:11:29.877Z,83.93
2019-02-10T04:12:29.868Z,84.23
2019-02-10T04:13:29.857Z,84.13
2019-02-10T04:14:29.844Z,84.23
2019-02-10T04:15:29.886Z,84.65
2019-02-10T04:16:29.823Z,84.55
2019-02-10T04:17:29.816Z,84.55
2019-02-10T04:18:29.808Z,84.34
2019-02-10T04:19:29.794Z,84.23
2019-02-10T04:20:29.808Z,84.44
2019-02-10T04:21:29.771Z,84.55
2019-02-10T04:22:29.764Z,84.44
2019-02-10T04:23:29.751Z,85.17
2019-02-10T04:24:29.739Z,84.23
2019-02-10T04:25:29.751Z,84.44
2019-02-10T04:26:29.717Z,84.13
2019-02-10T04:27:29.706Z,84.65
2019-02-10T04:28:29.727Z,85.06
2019-02-10T04:29:29.682Z,84.86
2019-02-10T04:30:29.697Z,84.75
2019-02-10T04:31:29.663Z,84.75
2019-02-10T04:32:29.650Z,85.00
2019-02-10T04:33:29.639Z,84.96
2019-02-10T04:34:29.629Z,85.00
2019-02-10T04:35:29.646Z,84.90
2019-02-10T04:36:29.608Z,84.80
2019-02-10T04:37:29.597Z,84.75
2019-02-10T04:38:29.589Z,84.86
2019-02-10T04:39:29.575Z,84.75
2019-02-10T04:40:29.590Z,84.86
2019-02-10T04:41:29.554Z,84.86
2019-02-10T04:42:29.544Z,84.65
2019-02-10T04:43:29.534Z,84.75
2019-02-10T04:44:29.524Z,84.80
2019-02-10T04:45:29.537Z,84.90
2019-02-10T04:46:29.504Z,84.80
2019-02-10T04:47:29.490Z,84.90
2019-02-10T04:48:29.483Z,84.90
2019-02-10T04:49:29.471Z,84.80
2019-02-10T04:50:29.486Z,84.86
2019-02-10T04:51:29.449Z,85.00
2019-02-10T04:52:29.437Z,84.59
2019-02-10T04:53:29.428Z,84.75
2019-02-10T04:54:29.417Z,84.65
2019-02-10T04:55:29.431Z,84.69
2019-02-10T04:56:29.393Z,84.80
2019-02-10T04:57:29.384Z,84.69
2019-02-10T04:58:29.372Z,84.65
2019-02-10T04:59:29.367Z,85.06
2019-02-10T05:00:29.378Z,84.86
2019-02-10T05:01:29.340Z,84.96
2019-02-10T05:02:29.354Z,85.21
2019-02-10T05:03:29.318Z,85.17
2019-02-10T05:04:29.314Z,84.23
2019-02-10T05:05:29.322Z,84.55
2019-02-10T05:06:29.287Z,84.55
2019-02-10T05:07:29.276Z,84.55
2019-02-10T05:08:29.266Z,84.23
2019-02-10T05:09:29.255Z,83.93
2019-02-10T05:10:29.269Z,84.34
2019-02-10T05:11:29.243Z,84.23
2019-02-10T05:12:29.222Z,84.23
2019-02-10T05:13:29.214Z,84.65
2019-02-10T05:14:29.211Z,84.55
2019-02-10T05:15:29.225Z,85.17
2019-02-10T05:16:29.182Z,85.27
2019-02-10T05:17:29.169Z,84.23
2019-02-10T05:18:29.158Z,84.23
2019-02-10T05:19:29.148Z,85.27
2019-02-10T05:20:29.137Z,84.55
2019-02-10T05:21:29.151Z,84.23
2019-02-10T05:22:29.122Z,84.23
2019-02-10T05:23:29.108Z,84.13
2019-02-10T05:24:29.097Z,84.34
2019-02-10T05:25:29.107Z,84.44
2019-02-10T05:26:29.072Z,84.03
2019-02-10T05:27:29.065Z,83.93
2019-02-10T05:28:29.063Z,83.83
2019-02-10T05:29:29.041Z,83.93
2019-02-10T05:30:29.053Z,84.34
2019-02-10T05:31:29.018Z,83.93
2019-02-10T05:32:29.008Z,84.13
2019-02-10T05:33:28.997Z,84.23
2019-02-10T05:34:28.983Z,84.13
2019-02-10T05:35:29.014Z,83.99
2019-02-10T05:36:28.965Z,84.03
2019-02-10T05:37:28.952Z,83.83
2019-02-10T05:38:28.939Z,83.78
2019-02-10T05:39:28.931Z,83.78
2019-02-10T05:40:28.920Z,83.51
2019-02-10T05:41:28.933Z,83.58
2019-02-10T05:42:28.902Z,83.58
2019-02-10T05:43:28.889Z,83.58
2019-02-10T05:44:28.876Z,83.89
2019-02-10T05:45:28.892Z,83.78
2019-02-10T05:46:28.871Z,83.37
2019-02-10T05:47:28.845Z,83.78
2019-02-10T05:48:28.849Z,83.78
2019-02-10T05:49:28.821Z,83.68
2019-02-10T05:50:28.838Z,83.78
2019-02-10T05:51:28.803Z,83.37
2019-02-10T05:52:28.794Z,83.58
2019-02-10T05:53:28.778Z,83.47
2019-02-10T05:54:28.770Z,83.47
2019-02-10T05:55:28.782Z,83.26
2019-02-10T05:56:28.745Z,83.26
2019-02-10T05:57:28.737Z,83.26
2019-02-10T05:58:28.724Z,83.16
2019-02-10T05:59:28.719Z,83.47
2019-02-10T06:00:28.728Z,83.37
2019-02-10T06:01:28.692Z,83.37
2019-02-10T06:02:28.680Z,83.37
2019-02-10T06:03:28.670Z,83.26
2019-02-10T06:04:28.681Z,83.47
2019-02-10T06:05:28.677Z,83.37
2019-02-10T06:06:28.642Z,83.37
2019-02-10T06:07:28.627Z,83.23
2019-02-10T06:08:28.614Z,83.26
2019-02-10T06:09:28.605Z,83.47
2019-02-10T06:10:28.618Z,83.26
2019-02-10T06:11:28.585Z,83.33
2019-02-10T06:12:28.571Z,83.37
2019-02-10T06:13:28.561Z,83.58
2019-02-10T06:14:28.551Z,83.37
2019-02-10T06:15:28.564Z,83.26
2019-02-10T06:16:28.535Z,83.16
2019-02-10T06:17:28.518Z,83.47
2019-02-10T06:18:28.509Z,83.16
2019-02-10T06:19:28.498Z,83.37
2019-02-10T06:20:28.515Z,83.16
2019-02-10T06:21:28.476Z,83.16
2019-02-10T06:22:28.463Z,83.16
2019-02-10T06:23:28.456Z,82.86
2019-02-10T06:24:28.445Z,82.86
2019-02-10T06:25:28.459Z,82.81
2019-02-10T06:26:28.420Z,82.81
2019-02-10T06:27:28.410Z,82.92
2019-02-10T06:28:28.399Z,82.65
2019-02-10T06:29:28.388Z,82.86
2019-02-10T06:30:28.407Z,82.75
2019-02-10T06:31:28.369Z,82.81
2019-02-10T06:32:28.361Z,82.71
2019-02-10T06:33:28.347Z,82.92
2019-02-10T06:34:28.332Z,83.02
2019-02-10T06:35:28.345Z,82.71
2019-02-10T06:36:28.314Z,82.71
2019-02-10T06:37:28.301Z,82.81
2019-02-10T06:38:28.289Z,82.60
2019-02-10T06:39:28.281Z,82.71
2019-02-10T06:40:28.291Z,82.71
2019-02-10T06:41:28.255Z,82.81
2019-02-10T06:42:28.244Z,82.71
2019-02-10T06:43:28.234Z,82.60
2019-02-10T06:44:28.223Z,82.75
2019-02-10T06:45:28.237Z,82.60
2019-02-10T06:46:28.200Z,82.71
2019-02-10T06:47:28.191Z,82.81
2019-02-10T06:48:28.181Z,82.71
2019-02-10T06:49:28.171Z,82.71
2019-02-10T06:50:28.184Z,82.92
2019-02-10T06:51:28.147Z,82.60
2019-02-10T06:52:28.135Z,82.71
2019-02-10T06:53:28.125Z,82.60
2019-02-10T06:54:28.117Z,83.02
2019-02-10T06:55:28.128Z,83.02
2019-02-10T06:56:28.094Z,83.12
2019-02-10T06:57:28.080Z,83.12
2019-02-10T06:58:28.069Z,83.02
2019-02-10T06:59:28.062Z,83.12
2019-02-10T07:00:28.074Z,82.92
2019-02-10T07:01:28.039Z,83.02
2019-02-10T07:02:28.028Z,83.23
2019-02-10T07:03:28.018Z,82.57
2019-02-10T07:04:28.006Z,82.88
2019-02-10T07:05:28.020Z,82.98
2019-02-10T07:06:27.982Z,82.57
2019-02-10T07:07:27.972Z,82.60
2019-02-10T07:08:30.571Z,82.46
2019-02-10T07:09:27.950Z,82.57
2019-02-10T07:10:27.964Z,82.67
2019-02-10T07:11:27.930Z,82.78
2019-02-10T07:12:27.919Z,82.46
2019-02-10T07:13:27.909Z,82.57
2019-02-10T07:14:27.897Z,82.57
2019-02-10T07:15:27.913Z,82.46
2019-02-10T07:16:27.874Z,82.36
2019-02-10T07:17:27.862Z,82.57
2019-02-10T07:18:27.862Z,82.05
2019-02-10T07:19:27.842Z,82.36
2019-02-10T07:20:27.858Z,82.43
2019-02-10T07:21:28.769Z,81.74
2019-02-10T07:22:27.810Z,81.81
2019-02-10T07:23:27.799Z,81.84
2019-02-10T07:24:27.789Z,81.60
2019-02-10T07:25:27.806Z,82.15
2019-02-10T07:26:27.767Z,81.81
2019-02-10T07:27:27.755Z,81.60
2019-02-10T07:28:27.744Z,81.81
2019-02-10T07:29:27.734Z,81.60
2019-02-10T07:30:27.746Z,81.81
2019-02-10T07:31:27.716Z,81.81
2019-02-10T07:32:27.699Z,81.09
2019-02-10T07:33:27.689Z,81.29
2019-02-10T07:34:27.679Z,80.88
2019-02-10T07:35:27.697Z,81.60
2019-02-10T07:36:27.659Z,81.19
2019-02-10T07:37:27.648Z,81.70
2019-02-10T07:38:27.637Z,81.35
2019-02-10T07:39:27.627Z,81.35
2019-02-10T07:40:27.648Z,81.25
2019-02-10T07:41:27.610Z,81.56
2019-02-10T07:42:27.595Z,81.35
2019-02-10T07:43:27.583Z,81.25
2019-02-10T07:44:27.574Z,81.67
2019-02-10T07:45:34.637Z,81.15
2019-02-10T07:46:27.553Z,81.46
2019-02-10T07:47:27.541Z,81.67
2019-02-10T07:48:27.530Z,81.25
2019-02-10T07:49:27.519Z,81.15
2019-02-10T07:50:27.531Z,81.35
2019-02-10T07:51:27.498Z,81.77
2019-02-10T07:52:27.486Z,81.35
2019-02-10T07:53:27.479Z,81.67
2019-02-10T07:54:27.467Z,81.25
2019-02-10T07:55:27.480Z,81.42
2019-02-10T07:56:28.795Z,81.21
2019-02-10T07:57:27.433Z,80.70
2019-02-10T07:58:27.424Z,81.25
2019-02-10T07:59:27.413Z,81.01
2019-02-10T08:00:27.438Z,80.90
2019-02-10T08:01:27.392Z,80.60
2019-02-10T08:02:27.383Z,80.70
2019-02-10T08:03:27.372Z,80.39
2019-02-10T08:04:27.360Z,80.29
2019-02-10T08:05:27.384Z,80.39
2019-02-10T08:06:27.338Z,80.29
2019-02-10T08:07:27.330Z,80.18
2019-02-10T08:08:27.333Z,80.49
2019-02-10T08:09:27.310Z,80.49
2019-02-10T08:10:27.331Z,80.70
2019-02-10T08:11:27.286Z,81.21
2019-02-10T08:12:27.277Z,81.01
2019-02-10T08:13:27.267Z,80.29
2019-02-10T08:14:27.257Z,80.76
2019-02-10T08:15:27.280Z,81.59
2019-02-10T08:16:27.233Z,81.38
2019-02-10T08:17:27.224Z,81.59
2019-02-10T08:18:27.212Z,81.18
2019-02-10T08:19:27.200Z,81.49
2019-02-10T08:20:27.216Z,82.31
2019-02-10T08:21:27.182Z,82.31
2019-02-10T08:22:27.171Z,82.73
2019-02-10T08:23:27.163Z,82.73
2019-02-10T08:24:27.148Z,83.04
2019-02-10T08:25:27.185Z,83.07
2019-02-10T08:26:28.580Z,83.80
2019-02-10T08:27:27.118Z,84.52
2019-02-10T08:28:27.112Z,84.73
2019-02-10T08:29:27.096Z,84.63
2019-02-10T08:30:27.087Z,85.24
2019-02-10T08:31:27.101Z,85.45
2019-02-10T08:32:27.067Z,85.66
2019-02-10T08:33:27.057Z,86.07
2019-02-10T08:34:27.043Z,86.28
2019-02-10T08:35:27.455Z,86.18
2019-02-10T08:36:27.021Z,86.38
2019-02-10T08:37:27.018Z,86.69
2019-02-10T08:38:27.002Z,87.41
2019-02-10T08:39:26.990Z,87.73
2019-02-10T08:40:27.005Z,87.21
2019-02-10T08:41:26.970Z,87.83
2019-02-10T08:42:26.962Z,88.14
2019-02-10T08:43:26.951Z,88.04
2019-02-10T08:44:26.969Z,87.73
2019-02-10T08:45:26.951Z,87.73
2019-02-10T08:46:26.914Z,87.99
2019-02-10T08:47:33.581Z,87.79
2019-02-10T08:48:27.894Z,87.37
2019-02-10T08:49:26.893Z,87.89
2019-02-10T08:50:26.899Z,88.10
2019-02-10T08:51:26.883Z,88.76
2019-02-10T08:52:26.850Z,88.41
2019-02-10T08:53:26.842Z,88.51
2019-02-10T08:54:26.830Z,88.55
2019-02-10T08:55:26.845Z,88.82
2019-02-10T08:56:26.809Z,89.75
2019-02-10T08:57:26.799Z,89.69
2019-02-10T08:58:26.787Z,89.79
2019-02-10T08:59:26.779Z,90.06
2019-02-10T09:00:26.788Z,90.20
2019-02-10T09:01:26.755Z,90.62
2019-02-10T09:02:26.745Z,90.93
2019-02-10T09:03:26.732Z,91.24
2019-02-10T09:04:26.730Z,90.83
2019-02-10T09:05:26.740Z,90.93
2019-02-10T09:06:26.703Z,91.34
2019-02-10T09:07:26.690Z,91.86
2019-02-10T09:08:26.680Z,91.90
2019-02-10T09:09:26.673Z,91.96
2019-02-10T09:10:26.683Z,92.99
2019-02-10T09:11:26.666Z,92.11
2019-02-10T09:12:26.634Z,92.63
2019-02-10T09:13:26.630Z,92.83
2019-02-10T09:14:26.615Z,92.72
2019-02-10T09:15:26.629Z,93.14
2019-02-10T09:16:26.593Z,92.83
2019-02-10T09:17:26.580Z,92.93
2019-02-10T09:18:26.570Z,93.24
2019-02-10T09:19:26.566Z,92.83
2019-02-10T09:20:26.587Z,92.83
2019-02-10T09:21:26.536Z,92.93
2019-02-10T09:22:26.527Z,93.35
2019-02-10T09:23:26.519Z,93.24
2019-02-10T09:24:26.505Z,93.55
2019-02-10T09:25:26.495Z,93.55
2019-02-10T09:26:26.523Z,93.14
2019-02-10T09:27:26.472Z,93.45
2019-02-10T09:28:26.461Z,93.45
2019-02-10T09:29:26.460Z,93.55
2019-02-10T09:30:26.444Z,93.87
2019-02-10T09:31:26.428Z,93.45
2019-02-10T09:32:26.442Z,93.66
2019-02-10T09:33:26.405Z,93.55
2019-02-10T09:34:26.405Z,94.28
2019-02-10T09:35:26.383Z,93.76
2019-02-10T09:36:26.373Z,94.79
2019-02-10T09:37:26.404Z,94.48
2019-02-10T09:38:26.351Z,94.07
2019-02-10T09:39:26.341Z,94.34
2019-02-10T09:40:26.332Z,94.54
2019-02-10T09:41:26.317Z,94.23
2019-02-10T09:42:26.307Z,94.65
2019-02-10T09:43:26.330Z,94.44
2019-02-10T09:44:26.288Z,94.34
2019-02-10T09:45:26.277Z,95.06
2019-02-10T09:46:26.262Z,94.75
2019-02-10T09:47:26.261Z,94.96
2019-02-10T09:48:26.242Z,95.10
2019-02-10T09:49:26.253Z,95.10
2019-02-10T09:50:26.223Z,95.17
2019-02-10T09:51:26.218Z,95.06
2019-02-10T09:52:26.201Z,94.79
2019-02-10T09:53:26.186Z,94.85
2019-02-10T09:54:26.217Z,94.90
2019-02-10T09:55:26.164Z,94.75
2019-02-10T09:56:26.154Z,95.17
2019-02-10T09:57:26.147Z,94.90
2019-02-10T09:58:26.133Z,94.69
2019-02-10T09:59:26.122Z,94.96
2019-02-10T10:00:26.135Z,94.65
2019-02-10T10:01:26.103Z,94.75
2019-02-10T10:02:26.090Z,94.75
2019-02-10T10:03:26.077Z,94.75
2019-02-10T10:04:26.070Z,94.85
2019-02-10T10:05:26.082Z,95.17
2019-02-10T10:06:26.053Z,94.34
2019-02-10T10:07:26.038Z,94.79
2019-02-10T10:08:26.029Z,94.69
2019-02-10T10:09:26.015Z,94.96
2019-02-10T10:10:26.035Z,94.75
2019-02-10T10:11:25.991Z,94.54
2019-02-10T10:12:25.980Z,94.96
2019-02-10T10:13:25.969Z,94.85
2019-02-10T10:14:30.860Z,94.69
2019-02-10T10:15:26.992Z,94.75
2019-02-10T10:16:25.939Z,94.54
2019-02-10T10:17:25.927Z,94.85
2019-02-10T10:18:25.918Z,94.65
2019-02-10T10:19:25.906Z,95.06
2019-02-10T10:20:25.904Z,94.96
2019-02-10T10:21:25.913Z,95.73
2019-02-10T10:22:25.874Z,95.57
2019-02-10T10:23:25.882Z,95.57
2019-02-10T10:24:25.852Z,95.17
2019-02-10T10:25:25.841Z,95.48
2019-02-10T10:26:25.868Z,95.17
2019-02-10T10:27:25.819Z,94.96
2019-02-10T10:28:25.810Z,95.17
2019-02-10T10:29:25.911Z,95.27
2019-02-10T10:30:25.788Z,94.96
2019-02-10T10:31:25.776Z,95.53
2019-02-10T10:32:25.804Z,95.32
2019-02-10T10:33:25.755Z,95.43
2019-02-10T10:34:25.747Z,95.64
2019-02-10T10:35:25.734Z,94.60
2019-02-10T10:36:25.723Z,95.22
2019-02-10T10:37:25.712Z,95.22
2019-02-10T10:38:25.739Z,95.32
2019-02-10T10:39:27.468Z,95.22
2019-02-10T10:40:25.685Z,95.07
2019-02-10T10:41:25.669Z,95.22
2019-02-10T10:42:25.666Z,94.92
2019-02-10T10:43:25.650Z,95.12
2019-02-10T10:44:25.724Z,95.22
2019-02-10T10:45:25.628Z,95.12
2019-02-10T10:46:25.616Z,94.97
2019-02-10T10:47:25.606Z,94.77
2019-02-10T10:48:25.594Z,95.22
2019-02-10T10:49:25.622Z,94.81
2019-02-10T10:50:25.600Z,95.02
2019-02-10T10:51:25.564Z,95.43
2019-02-10T10:52:25.552Z,95.32
2019-02-10T10:53:25.558Z,94.60
2019-02-10T10:54:25.532Z,95.02
2019-02-10T10:55:25.569Z,95.18
2019-02-10T10:56:25.510Z,95.70
2019-02-10T10:57:25.498Z,95.28
2019-02-10T10:58:25.485Z,95.12
2019-02-10T10:59:25.479Z,94.67
2019-02-10T11:00:25.492Z,94.77
2019-02-10T11:01:25.681Z,95.18
2019-02-10T11:02:25.446Z,94.77
2019-02-10T11:03:25.432Z,94.67
2019-02-10T11:04:25.421Z,94.87
2019-02-10T11:05:25.441Z,94.87
2019-02-10T11:06:25.409Z,94.87
2019-02-10T11:07:25.390Z,94.77
2019-02-10T11:08:25.378Z,95.34
2019-02-10T11:09:25.366Z,94.82
2019-02-10T11:10:25.381Z,95.28
2019-02-10T11:11:25.347Z,94.87
2019-02-10T11:12:25.335Z,95.03
2019-02-10T11:13:25.339Z,94.97
2019-02-10T11:14:25.322Z,94.56
2019-02-10T11:15:25.326Z,94.87
2019-02-10T11:16:25.292Z,95.59
2019-02-10T11:17:25.336Z,94.93
2019-02-10T11:18:25.268Z,95.03
2019-02-10T11:19:25.259Z,94.52
2019-02-10T11:20:25.272Z,94.82
2019-02-10T11:21:25.241Z,94.82
2019-02-10T11:22:25.224Z,94.62
2019-02-10T11:23:25.213Z,94.62
2019-02-10T11:24:28.735Z,94.93
2019-02-10T11:25:25.217Z,94.93
2019-02-10T11:26:25.200Z,95.03
2019-02-10T11:27:25.176Z,94.93
2019-02-10T11:28:25.173Z,94.93
2019-02-10T11:29:25.168Z,95.24
2019-02-10T11:30:25.169Z,95.24
2019-02-10T11:31:25.127Z,94.62
2019-02-10T11:32:25.126Z,95.20
2019-02-10T11:33:25.106Z,94.93
2019-02-10T11:34:25.094Z,94.52
2019-02-10T11:35:25.108Z,94.42
2019-02-10T11:36:25.072Z,94.93
2019-02-10T11:37:26.867Z,94.37
2019-02-10T11:38:25.051Z,95.20
2019-02-10T11:39:25.040Z,94.99
2019-02-10T11:40:25.053Z,94.89
2019-02-10T11:41:25.017Z,94.57
2019-02-10T11:42:25.008Z,94.37
2019-02-10T11:43:25.393Z,94.57
2019-02-10T11:44:24.987Z,94.52
2019-02-10T11:45:25.014Z,94.78
2019-02-10T11:46:24.991Z,94.78
2019-02-10T11:47:24.961Z,94.89
2019-02-10T11:48:24.941Z,94.47
2019-02-10T11:49:24.933Z,94.27
2019-02-10T11:50:24.923Z,94.78
2019-02-10T11:51:24.933Z,94.78
2019-02-10T11:52:24.913Z,94.47
2019-02-10T11:53:24.888Z,94.27
2019-02-10T11:54:24.882Z,94.27
2019-02-10T11:55:24.865Z,93.75
2019-02-10T11:56:24.898Z,94.27
2019-02-10T11:57:24.919Z,94.37
2019-02-10T11:58:24.837Z,94.47
2019-02-10T11:59:24.845Z,94.47
2019-02-10T12:00:24.818Z,93.91
2019-02-10T12:01:24.802Z,93.71
2019-02-10T12:02:24.828Z,94.12
2019-02-10T12:03:24.789Z,93.81
2019-02-10T12:04:24.769Z,93.60
2019-02-10T12:05:24.762Z,93.13
2019-02-10T12:06:24.750Z,93.40
2019-02-10T12:07:24.745Z,93.30
2019-02-10T12:08:24.752Z,93.40
2019-02-10T12:09:24.727Z,93.91
2019-02-10T12:10:24.706Z,93.81
2019-02-10T12:11:24.695Z,93.40
2019-02-10T12:12:24.691Z,93.60
2019-02-10T12:13:24.700Z,93.91
2019-02-10T12:14:24.689Z,93.50
2019-02-10T12:15:24.654Z,93.60
2019-02-10T12:16:24.643Z,93.60
2019-02-10T12:17:24.633Z,93.19
2019-02-10T12:18:24.671Z,93.40
2019-02-10T12:19:24.618Z,92.99
2019-02-10T12:20:24.603Z,93.09
2019-02-10T12:21:24.594Z,93.81
2019-02-10T12:22:24.584Z,92.94
2019-02-10T12:23:24.569Z,93.35
2019-02-10T12:24:24.598Z,93.25
2019-02-10T12:25:24.548Z,93.15
2019-02-10T12:26:24.544Z,93.66
2019-02-10T12:27:24.526Z,93.35
2019-02-10T12:28:24.518Z,93.05
2019-02-10T12:29:24.507Z,93.05
2019-02-10T12:30:24.519Z,92.63
2019-02-10T12:31:24.525Z,93.35
2019-02-10T12:32:24.491Z,92.94
2019-02-10T12:33:24.465Z,93.25
2019-02-10T12:34:24.452Z,93.15
2019-02-10T12:35:24.469Z,92.74
2019-02-10T12:36:24.432Z,93.05
2019-02-10T12:37:32.070Z,93.46
2019-02-10T12:38:25.410Z,93.25
2019-02-10T12:39:24.400Z,93.05
2019-02-10T12:40:24.418Z,93.46
2019-02-10T12:41:24.385Z,93.25
2019-02-10T12:42:24.368Z,93.46
2019-02-10T12:43:24.357Z,93.56
2019-02-10T12:44:24.346Z,93.46
2019-02-10T12:45:24.362Z,93.25
2019-02-10T12:46:24.329Z,93.46
2019-02-10T12:47:24.319Z,93.66
2019-02-10T12:48:24.306Z,93.15
2019-02-10T12:49:24.297Z,93.56
2019-02-10T12:50:24.322Z,93.77
2019-02-10T12:51:24.274Z,93.25
2019-02-10T12:52:24.275Z,93.56